createdAt,value
2019-04-22T04:01:40.533Z,987.04
2019-04-22T04:03:51.775Z,987.00
2019-04-22T04:06:43.205Z,986.99
2019-04-22T04:08:51.614Z,986.98
2019-04-22T04:10:37.618Z,986.97
2019-04-22T04:11:46.968Z,986.97
2019-04-22T04:12:28.398Z,986.97
2019-04-22T04:14:37.279Z,986.92
2019-04-22T04:15:34.443Z,986.92
2019-04-22T04:17:36.948Z,986.92
2019-04-22T04:18:41.137Z,986.92
2019-04-22T04:21:33.122Z,986.89
2019-04-22T04:23:37.876Z,986.82
2019-04-22T04:24:48.887Z,986.84
2019-04-22T04:26:45.818Z,986.85
2019-04-22T04:29:45.204Z,986.83
2019-04-22T04:33:41.731Z,986.77
2019-04-22T04:34:55.869Z,986.77
2019-04-22T04:35:44.588Z,986.76
2019-04-22T04:36:37.039Z,986.76
2019-04-22T04:37:54.487Z,986.75
2019-04-22T04:38:38.921Z,986.75
2019-04-22T04:39:49.976Z,986.82
2019-04-22T04:41:42.715Z,986.74
2019-04-22T04:44:59.360Z,986.81
2019-04-22T04:45:44.889Z,986.78
2019-04-22T04:47:49.255Z,986.75
2019-04-22T04:49:48.407Z,986.77
2019-04-22T04:50:38.234Z,986.81
2019-04-22T04:51:37.611Z,986.79
2019-04-22T04:53:31.824Z,986.77
2019-04-22T04:54:41.991Z,986.78
2019-04-22T04:58:55.984Z,986.84
2019-04-22T05:00:06.055Z,986.85
2019-04-22T05:00:52.453Z,986.78
2019-04-22T05:02:46.738Z,986.82
2019-04-22T05:05:00.188Z,986.85
2019-04-22T05:06:59.358Z,986.83
2019-04-22T05:07:40.482Z,986.83
2019-04-22T05:09:07.202Z,986.83
2019-04-22T05:09:32.660Z,986.80
2019-04-22T05:10:49.307Z,986.80
2019-04-22T05:13:49.292Z,986.84
2019-04-22T05:14:43.638Z,986.82
2019-04-22T05:15:46.190Z,986.84
2019-04-22T05:16:41.165Z,986.83
2019-04-22T05:18:44.652Z,986.86
2019-04-22T05:20:53.499Z,986.86
2019-04-22T05:21:31.318Z,986.85
2019-04-22T05:22:39.806Z,986.87
2019-04-22T05:23:50.550Z,986.85
2019-04-22T05:24:34.739Z,986.86
2019-04-22T05:25:33.812Z,986.91
2019-04-22T05:26:39.404Z,986.87
2019-04-22T05:27:39.766Z,986.85
2019-04-22T05:28:35.045Z,986.89
2019-04-22T05:29:54.222Z,986.87
2019-04-22T05:30:56.688Z,986.87
2019-04-22T05:31:57.266Z,986.84
2019-04-22T05:33:46.248Z,986.84
2019-04-22T05:34:39.895Z,986.88
2019-04-22T05:35:38.997Z,986.89
2019-04-22T05:36:42.622Z,986.84
2019-04-22T05:37:40.397Z,986.85
2019-04-22T05:38:46.644Z,986.82
2019-04-22T05:39:35.880Z,986.86
2019-04-22T05:40:34.792Z,986.82
2019-04-22T05:41:41.529Z,986.84
2019-04-22T05:42:39.499Z,986.80
2019-04-22T05:43:44.579Z,986.84
2019-04-22T05:44:44.078Z,986.83
2019-04-22T05:45:40.311Z,986.84
2019-04-22T05:46:42.198Z,986.85
2019-04-22T05:47:42.884Z,986.81
2019-04-22T05:48:51.977Z,986.84
2019-04-22T05:49:35.055Z,986.84
2019-04-22T05:50:42.523Z,986.83
2019-04-22T05:51:41.760Z,986.88
2019-04-22T05:52:43.130Z,986.82
2019-04-22T05:53:41.860Z,986.83
2019-04-22T05:54:38.955Z,986.84
2019-04-22T05:55:51.104Z,986.81
2019-04-22T05:57:42.692Z,986.85
2019-04-22T05:58:45.202Z,986.80
2019-04-22T05:59:37.930Z,986.76
2019-04-22T06:01:11.488Z,986.79
2019-04-22T06:01:54.977Z,986.77
2019-04-22T06:02:53.020Z,986.81
2019-04-22T06:03:46.573Z,986.80
2019-04-22T06:04:46.369Z,986.82
2019-04-22T06:05:41.681Z,986.77
2019-04-22T06:06:43.005Z,986.83
2019-04-22T06:07:38.731Z,986.82
2019-04-22T06:08:48.631Z,986.78
2019-04-22T06:09:38.938Z,986.78
2019-04-22T06:10:49.052Z,986.75
2019-04-22T06:11:46.176Z,986.78
2019-04-22T06:12:41.746Z,986.75
2019-04-22T06:13:41.856Z,986.76
2019-04-22T06:14:41.902Z,986.75
2019-04-22T06:15:40.364Z,986.76
2019-04-22T06:16:45.768Z,986.79
2019-04-22T06:17:53.060Z,986.77
2019-04-22T06:18:44.869Z,986.73
2019-04-22T06:19:49.052Z,986.69
2019-04-22T06:20:45.482Z,986.69
2019-04-22T06:21:44.802Z,986.69
2019-04-22T06:22:51.020Z,986.65
2019-04-22T06:23:49.211Z,986.64
2019-04-22T06:24:49.368Z,986.63
2019-04-22T06:26:05.571Z,986.64
2019-04-22T06:27:48.281Z,986.68
2019-04-22T06:28:48.151Z,986.69
2019-04-22T06:29:41.145Z,986.68
2019-04-22T06:30:50.303Z,986.70
2019-04-22T06:32:15.205Z,986.73
2019-04-22T06:32:50.239Z,986.68
2019-04-22T06:33:48.713Z,986.71
2019-04-22T06:34:48.600Z,986.71
2019-04-22T06:35:52.116Z,986.68
2019-04-22T06:36:52.239Z,986.72
2019-04-22T06:38:10.007Z,986.66
2019-04-22T06:38:51.381Z,986.68
2019-04-22T06:39:46.701Z,986.65
2019-04-22T06:41:02.838Z,986.68
2019-04-22T06:42:56.587Z,986.69
2019-04-22T06:43:52.952Z,986.67
2019-04-22T06:44:52.725Z,986.62
2019-04-22T06:45:44.862Z,986.65
2019-04-22T06:46:53.691Z,986.60
2019-04-22T06:48:02.658Z,986.62
2019-04-22T06:48:49.143Z,986.60
2019-04-22T06:49:49.532Z,986.53
2019-04-22T06:51:53.808Z,986.56
2019-04-22T06:52:52.390Z,986.54
2019-04-22T06:53:47.384Z,986.52
2019-04-22T06:54:54.743Z,986.53
2019-04-22T06:55:58.024Z,986.52
2019-04-22T06:57:52.379Z,986.51
2019-04-22T06:58:55.036Z,986.50
2019-04-22T06:59:56.743Z,986.51
2019-04-22T07:01:09.881Z,986.50
2019-04-22T07:01:56.232Z,986.50
2019-04-22T07:03:14.701Z,986.53
2019-04-22T07:03:53.546Z,986.50
2019-04-22T07:04:56.281Z,986.49
2019-04-22T07:05:52.257Z,986.52
2019-04-22T07:06:56.577Z,986.52
2019-04-22T07:07:53.378Z,986.49
2019-04-22T07:09:14.510Z,986.51
2019-04-22T07:10:04.007Z,986.53
2019-04-22T07:10:50.659Z,986.49
2019-04-22T07:12:02.179Z,986.49
2019-04-22T07:12:58.539Z,986.46
2019-04-22T07:13:57.313Z,986.48
2019-04-22T07:14:53.416Z,986.45
2019-04-22T07:16:56.453Z,986.48
2019-04-22T07:17:58.203Z,986.45
2019-04-22T07:18:54.895Z,986.46
2019-04-22T07:19:58.349Z,986.46
2019-04-22T07:20:58.281Z,986.42
2019-04-22T07:21:57.911Z,986.50
2019-04-22T07:23:03.669Z,986.45
2019-04-22T07:24:14.533Z,986.45
2019-04-22T07:24:58.910Z,986.45
2019-04-22T07:26:11.847Z,986.44
2019-04-22T07:27:01.874Z,986.42
2019-04-22T07:27:58.526Z,986.38
2019-04-22T07:28:56.537Z,986.33
2019-04-22T07:30:05.281Z,986.37
2019-04-22T07:30:57.725Z,986.36
2019-04-22T07:32:05.001Z,986.36
2019-04-22T07:33:11.432Z,986.33
2019-04-22T07:34:02.346Z,986.27
2019-04-22T07:35:03.766Z,986.31
2019-04-22T07:36:25.962Z,986.29
2019-04-22T07:37:09.249Z,986.28
2019-04-22T07:38:00.291Z,986.25
2019-04-22T07:38:56.577Z,986.24
2019-04-22T07:40:55.912Z,986.23
2019-04-22T07:41:59.189Z,986.19
2019-04-22T07:43:09.106Z,986.22
2019-04-22T07:46:00.022Z,986.20
2019-04-22T07:47:04.809Z,986.23
2019-04-22T07:48:09.524Z,986.17
2019-04-22T07:49:02.117Z,986.20
2019-04-22T07:50:13.154Z,986.16
2019-04-22T07:51:05.522Z,986.22
2019-04-22T07:52:03.655Z,986.14
2019-04-22T07:53:01.000Z,986.14
2019-04-22T07:54:01.451Z,986.15
2019-04-22T07:56:03.552Z,986.13
2019-04-22T07:57:08.696Z,986.14
2019-04-22T07:58:05.275Z,986.09
2019-04-22T07:59:07.618Z,986.15
2019-04-22T08:00:09.006Z,986.08
2019-04-22T08:01:08.837Z,986.10
2019-04-22T08:02:02.111Z,986.08
2019-04-22T08:03:06.539Z,986.09
2019-04-22T08:04:08.186Z,986.05
2019-04-22T08:07:03.882Z,986.02
2019-04-22T08:08:09.554Z,986.05
2019-04-22T08:09:07.890Z,986.06
2019-04-22T08:10:14.348Z,986.02
2019-04-22T08:11:22.135Z,986.04
2019-04-22T08:11:59.479Z,986.01
2019-04-22T08:13:05.689Z,986.06
2019-04-22T08:14:07.731Z,986.04
2019-04-22T08:15:05.682Z,986.01
2019-04-22T08:16:04.525Z,986.03
2019-04-22T08:17:36.268Z,986.02
2019-04-22T08:18:22.150Z,985.99
2019-04-22T08:19:10.226Z,986.00
2019-04-22T08:20:10.738Z,985.99
2019-04-22T08:21:04.723Z,986.03
2019-04-22T08:22:07.473Z,986.03
2019-04-22T08:23:09.612Z,986.00
2019-04-22T08:24:09.703Z,986.03
2019-04-22T08:25:04.822Z,986.05
2019-04-22T08:26:04.918Z,986.01
2019-04-22T08:28:13.464Z,986.06
2019-04-22T08:29:30.767Z,986.10
2019-04-22T08:31:10.339Z,986.08
2019-04-22T08:32:05.097Z,986.11
2019-04-22T08:33:13.817Z,986.10
2019-04-22T08:35:14.321Z,986.13
2019-04-22T08:38:16.282Z,986.12
2019-04-22T08:39:13.589Z,986.13
2019-04-22T08:40:13.706Z,986.14
2019-04-22T08:41:16.541Z,986.12
2019-04-22T08:42:17.921Z,986.15
2019-04-22T08:43:20.907Z,986.12
2019-04-22T08:44:13.362Z,986.15
2019-04-22T08:45:18.687Z,986.19
2019-04-22T08:46:17.030Z,986.21
2019-04-22T08:47:19.081Z,986.18
2019-04-22T08:48:07.745Z,986.20
2019-04-22T08:49:30.191Z,986.20
2019-04-22T08:51:15.074Z,986.20
2019-04-22T08:52:16.376Z,986.13
2019-04-22T08:53:20.048Z,986.08
2019-04-22T08:54:27.896Z,986.05
2019-04-22T08:55:32.609Z,986.05
2019-04-22T08:56:23.530Z,986.04
2019-04-22T08:57:18.039Z,986.04
2019-04-22T08:58:21.371Z,985.98
2019-04-22T08:59:12.451Z,985.95
2019-04-22T09:00:15.442Z,985.99
2019-04-22T09:01:17.711Z,985.98
2019-04-22T09:02:23.012Z,985.99
2019-04-22T09:03:11.156Z,985.99
2019-04-22T09:04:27.869Z,986.05
2019-04-22T09:05:22.590Z,986.05
2019-04-22T09:06:24.749Z,986.08
2019-04-22T09:07:21.176Z,986.14
2019-04-22T09:08:19.076Z,986.18
2019-04-22T09:09:11.588Z,986.25
2019-04-22T09:10:20.316Z,986.29
2019-04-22T09:11:20.256Z,986.35
2019-04-22T09:13:26.385Z,986.25
2019-04-22T09:14:16.607Z,986.24
2019-04-22T09:15:20.522Z,986.22
2019-04-22T09:16:19.492Z,986.03
2019-04-22T09:17:28.131Z,985.90
2019-04-22T09:18:23.194Z,985.86
2019-04-22T09:19:16.800Z,985.81
2019-04-22T09:20:32.889Z,985.87
2019-04-22T09:21:26.059Z,985.84
2019-04-22T09:22:17.533Z,985.80
2019-04-22T09:23:24.658Z,985.87
2019-04-22T09:24:16.051Z,985.82
2019-04-22T09:25:18.698Z,985.75
2019-04-22T09:26:27.088Z,985.83
2019-04-22T09:27:24.902Z,985.72
2019-04-22T09:28:20.431Z,985.75
2019-04-22T09:29:20.813Z,985.83
2019-04-22T09:30:19.628Z,985.84
2019-04-22T09:31:19.510Z,985.89
2019-04-22T09:32:18.890Z,985.91
2019-04-22T09:33:20.935Z,985.94
2019-04-22T09:34:24.783Z,985.97
2019-04-22T09:35:16.005Z,985.99
2019-04-22T09:36:22.333Z,986.07
2019-04-22T09:38:32.881Z,986.06
2019-04-22T09:39:24.485Z,986.14
2019-04-22T09:41:18.691Z,986.22
2019-04-22T09:42:21.484Z,986.17
2019-04-22T09:43:24.143Z,986.08
2019-04-22T09:44:24.641Z,986.04
2019-04-22T09:45:15.464Z,986.08
2019-04-22T09:46:26.246Z,985.93
2019-04-22T09:47:40.888Z,985.89
2019-04-22T09:48:23.187Z,985.95
2019-04-22T09:49:30.737Z,985.98
2019-04-22T09:50:24.086Z,985.88
2019-04-22T09:51:19.015Z,985.89
2019-04-22T09:52:22.161Z,985.83
2019-04-22T09:53:22.468Z,985.87
2019-04-22T09:54:31.631Z,985.86
2019-04-22T09:55:26.298Z,985.83
2019-04-22T09:56:26.874Z,985.80
2019-04-22T09:57:24.475Z,985.81
2019-04-22T09:58:23.562Z,985.84
2019-04-22T09:59:20.199Z,985.81
2019-04-22T10:00:25.320Z,985.80
2019-04-22T10:02:38.985Z,985.83
2019-04-22T10:03:25.949Z,985.77
2019-04-22T10:04:27.284Z,985.76
2019-04-22T10:05:28.906Z,985.82
2019-04-22T10:07:27.496Z,985.77
2019-04-22T10:08:38.621Z,985.81
2019-04-22T10:09:40.840Z,985.76
2019-04-22T10:10:21.890Z,985.66
2019-04-22T10:12:32.503Z,985.66
2019-04-22T10:13:32.031Z,985.67
2019-04-22T10:14:28.975Z,985.66
2019-04-22T10:15:29.778Z,985.59
2019-04-22T10:16:31.207Z,985.61
2019-04-22T10:17:25.416Z,985.61
2019-04-22T10:18:28.210Z,985.71
2019-04-22T10:19:23.479Z,985.92
2019-04-22T10:20:28.166Z,985.85
2019-04-22T10:21:35.289Z,985.53
2019-04-22T10:22:34.176Z,985.48
2019-04-22T10:23:31.311Z,985.49
2019-04-22T10:24:30.120Z,985.49
2019-04-22T10:25:29.841Z,985.47
2019-04-22T10:26:34.556Z,985.46
2019-04-22T10:27:26.958Z,985.47
2019-04-22T10:28:35.681Z,985.48
2019-04-22T10:29:39.248Z,985.57
2019-04-22T10:30:39.135Z,985.86
2019-04-22T10:31:23.806Z,985.94
2019-04-22T10:32:33.438Z,985.97
2019-04-22T10:33:27.236Z,985.95
2019-04-22T10:34:16.783Z,986.09
2019-04-22T10:35:09.867Z,986.09
2019-04-22T10:36:05.834Z,985.85
2019-04-22T10:37:10.962Z,985.47
2019-04-22T10:38:06.039Z,985.25
2019-04-22T10:39:06.461Z,985.14
2019-04-22T10:40:08.207Z,985.12
2019-04-22T10:41:05.845Z,984.99
2019-04-22T10:42:07.024Z,984.91
2019-04-22T10:43:07.328Z,984.89
2019-04-22T10:44:06.374Z,984.84
2019-04-22T10:45:08.085Z,985.01
2019-04-22T10:46:08.100Z,985.20
2019-04-22T10:47:06.918Z,985.29
2019-04-22T10:48:08.217Z,985.23
2019-04-22T10:49:08.435Z,985.24
2019-04-22T10:50:07.468Z,985.26
2019-04-22T10:51:08.565Z,985.26
2019-04-22T10:52:08.727Z,985.27
2019-04-22T10:53:08.008Z,985.14
2019-04-22T10:54:09.507Z,985.15
2019-04-22T10:55:09.577Z,985.18
2019-04-22T10:56:09.349Z,985.19
2019-04-22T10:57:08.813Z,985.21
2019-04-22T10:58:08.928Z,985.17
2019-04-22T10:59:09.107Z,985.18
2019-04-22T11:00:09.392Z,985.22
2019-04-22T11:01:09.662Z,985.24
2019-04-22T11:02:09.830Z,985.28
2019-04-22T11:03:09.841Z,985.36
2019-04-22T11:04:11.180Z,985.36
2019-04-22T11:05:10.343Z,985.34
2019-04-22T11:06:11.570Z,985.30
2019-04-22T11:07:12.644Z,985.29
2019-04-22T11:08:22.608Z,985.23
2019-04-22T11:09:12.364Z,985.27
2019-04-22T11:10:31.975Z,985.27
2019-04-22T11:11:26.316Z,985.22
2019-04-22T11:12:17.018Z,985.30
2019-04-22T11:13:11.668Z,985.29
2019-04-22T11:14:12.875Z,985.22
2019-04-22T11:15:12.034Z,985.27
2019-04-22T11:16:13.701Z,985.23
2019-04-22T11:17:13.507Z,985.23
2019-04-22T11:18:13.464Z,985.29
2019-04-22T11:19:13.925Z,985.34
2019-04-22T11:20:13.450Z,985.20
2019-04-22T11:21:13.745Z,985.33
2019-04-22T11:22:20.682Z,985.24
2019-04-22T11:23:14.408Z,985.31
2019-04-22T11:24:14.842Z,985.25
2019-04-22T11:25:13.966Z,985.27
2019-04-22T11:26:15.430Z,985.26
2019-04-22T11:27:14.941Z,985.32
2019-04-22T11:28:15.863Z,985.24
2019-04-22T11:29:14.611Z,985.30
2019-04-22T11:30:18.506Z,985.22
2019-04-22T11:31:16.488Z,985.20
2019-04-22T11:32:15.161Z,985.20
2019-04-22T11:33:16.341Z,985.11
2019-04-22T11:34:15.533Z,985.13
2019-04-22T11:35:16.164Z,985.16
2019-04-22T11:36:15.907Z,985.19
2019-04-22T11:37:16.596Z,985.14
2019-04-22T11:38:17.230Z,985.14
2019-04-22T11:39:17.012Z,985.05
2019-04-22T11:40:24.401Z,985.05
2019-04-22T11:41:16.922Z,984.93
2019-04-22T11:42:18.173Z,984.94
2019-04-22T11:43:17.181Z,985.07
2019-04-22T11:44:17.363Z,985.00
2019-04-22T11:45:17.565Z,985.04
2019-04-22T11:46:17.761Z,984.98
2019-04-22T11:47:19.183Z,985.05
2019-04-22T11:48:19.423Z,985.06
2019-04-22T11:49:18.282Z,984.99
2019-04-22T11:50:19.547Z,984.92
2019-04-22T11:51:19.912Z,985.05
2019-04-22T11:52:20.400Z,984.97
2019-04-22T11:53:19.015Z,985.05
2019-04-22T11:54:19.200Z,984.93
2019-04-22T11:55:19.382Z,984.99
2019-04-22T11:56:20.756Z,984.96
2019-04-22T11:57:21.071Z,985.03
2019-04-22T11:58:21.088Z,985.04
2019-04-22T11:59:20.567Z,984.97
2019-04-22T12:00:20.970Z,985.01
2019-04-22T12:01:21.013Z,984.84
2019-04-22T12:02:21.981Z,984.93
2019-04-22T12:03:21.053Z,984.92
2019-04-22T12:04:22.103Z,984.84
2019-04-22T12:05:21.758Z,984.82
2019-04-22T12:06:22.138Z,984.82
2019-04-22T12:07:21.606Z,984.86
2019-04-22T12:08:22.820Z,984.80
2019-04-22T12:09:21.979Z,984.83
2019-04-22T12:10:29.908Z,984.76
2019-04-22T12:11:22.858Z,984.73
2019-04-22T12:12:23.620Z,984.71
2019-04-22T12:13:23.979Z,984.68
2019-04-22T12:14:24.043Z,984.72
2019-04-22T12:15:24.367Z,984.70
2019-04-22T12:16:23.406Z,984.61
2019-04-22T12:17:24.238Z,984.61
2019-04-22T12:18:24.942Z,984.63
2019-04-22T12:19:25.058Z,984.69
2019-04-22T12:20:25.402Z,984.67
2019-04-22T12:21:24.199Z,984.72
2019-04-22T12:22:25.082Z,984.67
2019-04-22T12:23:25.190Z,984.68
2019-04-22T12:24:25.103Z,984.71
2019-04-22T12:25:34.732Z,984.67
2019-04-22T12:26:26.896Z,984.69
2019-04-22T12:27:26.771Z,984.56
2019-04-22T12:28:26.685Z,984.45
2019-04-22T12:29:26.922Z,984.22
2019-04-22T12:30:25.862Z,984.04
2019-04-22T12:31:27.263Z,983.94
2019-04-22T12:32:27.432Z,983.89
2019-04-22T12:33:27.717Z,983.82
2019-04-22T12:34:26.624Z,983.81
2019-04-22T12:35:28.291Z,983.84
2019-04-22T12:36:26.983Z,983.88
2019-04-22T12:37:35.616Z,983.80
2019-04-22T12:38:27.511Z,983.85
2019-04-22T12:39:27.545Z,983.79
2019-04-22T12:40:39.499Z,983.79
2019-04-22T12:41:27.910Z,983.83
2019-04-22T12:42:29.289Z,983.77
2019-04-22T12:43:29.493Z,983.79
2019-04-22T12:44:28.574Z,983.81
2019-04-22T12:45:29.837Z,983.77
2019-04-22T12:46:30.105Z,983.75
2019-04-22T12:47:30.413Z,983.77
2019-04-22T12:48:30.805Z,983.69
2019-04-22T12:49:29.963Z,983.70
2019-04-22T12:50:33.832Z,983.71
2019-04-22T12:51:31.171Z,983.66
2019-04-22T12:52:37.619Z,983.71
2019-04-22T12:53:30.138Z,983.68
2019-04-22T12:54:31.130Z,983.61
2019-04-22T12:55:32.052Z,983.50
2019-04-22T12:56:30.711Z,983.62
2019-04-22T12:57:32.577Z,983.61
2019-04-22T12:58:31.693Z,983.59
2019-04-22T12:59:31.861Z,983.56
2019-04-22T13:00:32.251Z,983.52
2019-04-22T13:01:33.001Z,983.44
2019-04-22T13:02:33.139Z,983.39
2019-04-22T13:03:32.114Z,983.38
2019-04-22T13:04:32.338Z,983.28
2019-04-22T13:05:33.384Z,983.45
2019-04-22T13:06:32.617Z,983.34
2019-04-22T13:07:33.616Z,983.41
2019-04-22T13:08:33.921Z,983.38
2019-04-22T13:09:33.512Z,983.25
2019-04-22T13:10:43.007Z,983.31
2019-04-22T13:11:36.405Z,983.37
2019-04-22T13:12:34.958Z,983.42
2019-04-22T13:13:34.633Z,983.32
2019-04-22T13:14:34.887Z,983.28
2019-04-22T13:15:35.086Z,983.26
2019-04-22T13:16:35.284Z,983.26
2019-04-22T13:17:35.733Z,983.22
2019-04-22T13:18:43.669Z,983.22
2019-04-22T13:19:36.147Z,983.25
2019-04-22T13:20:36.433Z,983.21
2019-04-22T13:21:36.492Z,983.22
2019-04-22T13:22:36.874Z,983.12
2019-04-22T13:23:36.930Z,983.12
2019-04-22T13:24:36.209Z,983.10
2019-04-22T13:25:36.655Z,983.13
2019-04-22T13:26:37.765Z,983.15
2019-04-22T13:27:37.086Z,983.09
2019-04-22T13:28:36.845Z,983.14
2019-04-22T13:29:37.238Z,983.05
2019-04-22T13:30:37.052Z,983.10
2019-04-22T13:31:37.237Z,983.07
2019-04-22T13:32:38.671Z,983.03
2019-04-22T13:33:38.790Z,983.07
2019-04-22T13:34:45.513Z,983.03
2019-04-22T13:35:39.370Z,983.01
2019-04-22T13:36:41.074Z,982.96
2019-04-22T13:37:39.035Z,982.96
2019-04-22T13:38:38.748Z,982.89
2019-04-22T13:39:39.050Z,982.85
2019-04-22T13:40:55.707Z,982.84
2019-04-22T13:41:46.404Z,982.80
2019-04-22T13:42:40.350Z,982.84
2019-04-22T13:43:40.927Z,982.88
2019-04-22T13:44:39.748Z,982.84
2019-04-22T13:45:40.736Z,982.85
2019-04-22T13:46:59.116Z,982.92
2019-04-22T13:47:55.724Z,982.83
2019-04-22T13:49:09.344Z,982.77
2019-04-22T13:50:17.692Z,982.82
2019-04-22T13:51:13.257Z,982.81
2019-04-22T13:52:15.043Z,982.74
2019-04-22T13:53:18.428Z,982.66
2019-04-22T13:54:42.432Z,982.72
2019-04-22T13:55:10.137Z,982.69
2019-04-22T13:56:01.336Z,982.74
2019-04-22T13:56:57.050Z,982.71
2019-04-22T13:57:57.254Z,982.72
2019-04-22T13:58:54.173Z,982.60
2019-04-22T13:59:48.034Z,982.66
2019-04-22T14:00:42.654Z,982.69
2019-04-22T14:01:43.082Z,982.66
2019-04-22T14:02:44.559Z,982.63
2019-04-22T14:03:44.428Z,982.67
2019-04-22T14:04:43.385Z,982.58
2019-04-22T14:05:44.856Z,982.54
2019-04-22T14:06:44.842Z,982.59
2019-04-22T14:07:43.944Z,982.52
2019-04-22T14:08:45.167Z,982.51
2019-04-22T14:09:44.533Z,982.53
2019-04-22T14:10:44.762Z,982.51
2019-04-22T14:11:50.499Z,982.49
2019-04-22T14:12:44.868Z,982.52
2019-04-22T14:13:46.125Z,982.49
2019-04-22T14:14:46.166Z,982.53
2019-04-22T14:15:46.581Z,982.46
2019-04-22T14:16:46.628Z,982.36
2019-04-22T14:17:47.113Z,982.42
2019-04-22T14:18:46.210Z,982.58
2019-04-22T14:19:46.595Z,982.51
2019-04-22T14:20:46.964Z,982.50
2019-04-22T14:21:47.473Z,982.54
2019-04-22T14:22:46.706Z,982.47
2019-04-22T14:23:46.890Z,982.47
2019-04-22T14:24:47.076Z,982.53
2019-04-22T14:25:48.429Z,982.41
2019-04-22T14:26:58.896Z,982.46
2019-04-22T14:27:55.884Z,982.44
2019-04-22T14:28:48.077Z,982.47
2019-04-22T14:29:49.311Z,982.42
2019-04-22T14:30:48.567Z,982.43
2019-04-22T14:32:00.884Z,982.42
2019-04-22T14:32:48.555Z,982.43
2019-04-22T14:33:53.606Z,982.37
2019-04-22T14:34:49.174Z,982.44
2019-04-22T14:35:49.916Z,982.39
2019-04-22T14:36:49.297Z,982.36
2019-04-22T14:37:50.265Z,982.30
2019-04-22T14:38:50.163Z,982.27
2019-04-22T14:39:49.841Z,982.25
2019-04-22T14:40:50.028Z,982.21
2019-04-22T14:42:10.895Z,982.17
2019-04-22T14:43:06.009Z,982.28
2019-04-22T14:44:56.383Z,982.22
2019-04-22T14:45:21.922Z,982.17
2019-04-22T14:46:20.432Z,982.14
2019-04-22T14:47:15.576Z,982.18
2019-04-22T14:48:18.840Z,982.21
2019-04-22T14:49:18.994Z,982.07
2019-04-22T14:50:12.382Z,982.10
2019-04-22T14:51:11.227Z,982.10
2019-04-22T14:52:15.125Z,982.02
2019-04-22T14:53:14.408Z,982.05
2019-04-22T14:54:10.023Z,982.00
2019-04-22T14:55:03.589Z,982.06
2019-04-22T14:55:52.791Z,982.01
2019-04-22T14:56:54.244Z,982.05
2019-04-22T14:57:53.113Z,982.01
2019-04-22T14:58:53.296Z,982.04
2019-04-22T14:59:53.726Z,982.02
2019-04-22T15:00:55.118Z,982.00
2019-04-22T15:01:54.146Z,981.96
2019-04-22T15:02:55.379Z,981.98
2019-04-22T15:03:54.528Z,981.91
2019-04-22T15:04:54.398Z,981.95
2019-04-22T15:05:54.585Z,981.92
2019-04-22T15:06:54.863Z,981.88
2019-04-22T15:07:55.081Z,982.01
2019-04-22T15:08:58.021Z,981.97
2019-04-22T15:09:55.706Z,982.04
2019-04-22T15:10:58.102Z,981.95
2019-04-22T15:12:08.401Z,982.00
2019-04-22T15:12:58.697Z,981.99
2019-04-22T15:13:57.017Z,981.96
2019-04-22T15:14:57.577Z,982.03
2019-04-22T15:15:58.648Z,981.96
2019-04-22T15:16:57.176Z,981.98
2019-04-22T15:17:56.868Z,981.92
2019-04-22T15:18:58.038Z,981.98
2019-04-22T15:19:58.048Z,981.95
2019-04-22T15:20:58.567Z,981.88
2019-04-22T15:21:58.640Z,981.82
2019-04-22T15:22:58.924Z,981.85
2019-04-22T15:23:58.241Z,981.86
2019-04-22T15:24:58.579Z,981.82
2019-04-22T15:25:58.975Z,981.86
2019-04-22T15:26:58.767Z,981.84
2019-04-22T15:27:59.433Z,981.84
2019-04-22T15:28:59.776Z,981.69
2019-04-22T15:29:59.213Z,981.81
2019-04-22T15:30:59.468Z,981.76
2019-04-22T15:31:59.910Z,981.77
2019-04-22T15:32:59.480Z,981.72
2019-04-22T15:34:00.567Z,981.76
2019-04-22T15:34:59.845Z,981.73
2019-04-22T15:36:01.372Z,981.83
2019-04-22T15:37:00.269Z,981.80
2019-04-22T15:38:01.531Z,981.79
2019-04-22T15:39:00.580Z,981.85
2019-04-22T15:40:00.762Z,981.79
2019-04-22T15:41:01.048Z,981.74
2019-04-22T15:42:11.615Z,981.82
2019-04-22T15:43:02.649Z,981.81
2019-04-22T15:44:01.886Z,981.89
2019-04-22T15:45:02.581Z,981.78
2019-04-22T15:46:03.836Z,981.74
2019-04-22T15:47:02.808Z,981.68
2019-04-22T15:48:02.215Z,981.73
2019-04-22T15:49:02.418Z,981.77
2019-04-22T15:50:03.839Z,981.75
2019-04-22T15:51:02.895Z,981.74
2019-04-22T15:52:04.679Z,981.66
2019-04-22T15:53:04.579Z,981.65
2019-04-22T15:54:03.626Z,981.74
2019-04-22T15:55:04.758Z,981.76
2019-04-22T15:56:04.901Z,981.61
2019-04-22T15:57:04.711Z,981.66
2019-04-22T15:58:04.058Z,981.58
2019-04-22T15:59:17.201Z,981.60
2019-04-22T16:00:18.201Z,981.67
2019-04-22T16:01:12.691Z,981.52
2019-04-22T16:02:06.608Z,981.56
2019-04-22T16:03:08.608Z,981.49
2019-04-22T16:04:05.199Z,981.51
2019-04-22T16:05:06.635Z,981.58
2019-04-22T16:06:06.074Z,981.43
2019-04-22T16:07:07.166Z,981.52
2019-04-22T16:08:06.733Z,981.54
2019-04-22T16:09:06.786Z,981.52
2019-04-22T16:10:07.832Z,981.52
2019-04-22T16:11:06.466Z,981.61
2019-04-22T16:12:16.355Z,981.47
2019-04-22T16:13:13.143Z,981.45
2019-04-22T16:14:08.496Z,981.51
2019-04-22T16:15:09.204Z,981.46
2019-04-22T16:16:07.376Z,981.46
2019-04-22T16:17:08.628Z,981.38
2019-04-22T16:18:09.433Z,981.40
2019-04-22T16:19:08.726Z,981.43
2019-04-22T16:20:09.188Z,981.37
2019-04-22T16:21:09.068Z,981.42
2019-04-22T16:22:13.410Z,981.51
2019-04-22T16:23:09.615Z,981.37
2019-04-22T16:24:09.058Z,981.41
2019-04-22T16:25:09.039Z,981.38
2019-04-22T16:26:09.415Z,981.41
2019-04-22T16:27:09.307Z,981.40
2019-04-22T16:28:11.015Z,981.39
2019-04-22T16:29:09.657Z,981.41
2019-04-22T16:30:09.834Z,981.41
2019-04-22T16:31:11.259Z,981.34
2019-04-22T16:32:11.419Z,981.32
2019-04-22T16:33:10.379Z,981.38
2019-04-22T16:34:11.347Z,981.40
2019-04-22T16:35:10.730Z,981.40
2019-04-22T16:36:11.100Z,981.29
2019-04-22T16:37:12.472Z,981.29
2019-04-22T16:38:11.262Z,981.27
2019-04-22T16:39:13.075Z,981.27
2019-04-22T16:40:12.545Z,981.22
2019-04-22T16:41:12.902Z,981.28
2019-04-22T16:42:23.982Z,981.29
2019-04-22T16:43:13.609Z,981.19
2019-04-22T16:44:12.488Z,981.18
2019-04-22T16:45:13.590Z,981.22
2019-04-22T16:46:13.814Z,981.15
2019-04-22T16:47:13.309Z,981.17
2019-04-22T16:48:13.638Z,981.16
2019-04-22T16:49:13.989Z,981.20
2019-04-22T16:50:14.060Z,981.16
2019-04-22T16:51:13.861Z,981.08
2019-04-22T16:52:14.011Z,981.10
2019-04-22T16:53:14.253Z,981.06
2019-04-22T16:54:14.122Z,981.09
2019-04-22T16:55:14.796Z,981.11
2019-04-22T16:56:15.192Z,981.02
2019-04-22T16:57:15.828Z,980.99
2019-04-22T16:58:15.014Z,980.99
2019-04-22T16:59:15.034Z,981.05
2019-04-22T17:00:16.432Z,981.02
2019-04-22T17:01:16.513Z,981.08
2019-04-22T17:02:16.700Z,981.07
2019-04-22T17:03:16.448Z,981.05
2019-04-22T17:04:16.494Z,981.06
2019-04-22T17:05:16.099Z,981.03
2019-04-22T17:06:17.389Z,981.01
2019-04-22T17:07:16.453Z,981.09
2019-04-22T17:08:16.631Z,981.05
2019-04-22T17:09:17.742Z,981.11
2019-04-22T17:10:17.758Z,981.15
2019-04-22T17:11:17.935Z,981.09
2019-04-22T17:12:17.335Z,981.10
2019-04-22T17:13:21.255Z,981.10
2019-04-22T17:14:25.288Z,981.13
2019-04-22T17:15:18.874Z,981.09
2019-04-22T17:16:18.154Z,981.05
2019-04-22T17:17:18.373Z,981.07
2019-04-22T17:18:19.159Z,981.10
2019-04-22T17:19:19.316Z,981.04
2019-04-22T17:20:18.753Z,981.05
2019-04-22T17:21:19.657Z,981.00
2019-04-22T17:22:19.704Z,981.10
2019-04-22T17:23:19.999Z,980.97
2019-04-22T17:24:19.587Z,981.04
2019-04-22T17:25:20.527Z,981.03
2019-04-22T17:26:20.708Z,981.06
2019-04-22T17:27:20.242Z,981.09
2019-04-22T17:28:21.476Z,981.01